Asheville Regional Airport
KAVL : now visible

Airfield :











YOU CAN JOIN US ON...

 
LOGIN :

Register | Disclaimer

   EN    FR    IT 

 









Legend :    VFR   Marginal VFR   IFR   Intensive IFR   Very Intensive IFR
Visi :
Ceiling :
>= 8 km
>= 3000ft
5 to 8 km
1000 to 3000 ft
1500m to 5 km
500 to 1000 ft
800 to 1500m
200 to 500 ft
< 800m
< 200 ft
Symbols :   Thunderstorms  Fog  Heavy snow  Heavy precipitations  Wind > 20 kt






- Airport Elevation : 2165 ft
- IATA code : AVL


KAVL - Asheville Regional

CURRENT METAR :
  • 130454Z AUTO 17005KT 8SM -RA OVC022 01/M03 A3037 RMK AO2 SLP290 P0004 T00061028 400611056

EXPIRED METARs :
  • 130354Z AUTO 16007KT 8SM -RA OVC025 02/M03 A3039 RMK AO2 RAE0258B39 SLP300 P0000 T00171033
  • 130334Z 17007KT 10SM BKN027 OVC040 02/M05 A3039 RMK AO2 RAE0258 P0000 T00221050
  • 130254Z 16005KT 10SM -RA FEW043 BKN055 OVC070 03/M04 A3040 RMK AO2 RAB45 SLP303 P0000 60000 T00281044 58008

TAF KAVL
Valid from the 13 at 04:00 until the 14 at 00:00 UTC


130349Z 1304/1324 17007KT P6SM VCSH BKN025 OVC035
FM130430 16007KT 6SM -FZRAPL BR OVC020
FM130600 15006KT 4SM -FZRA BR OVC012
FM130800 15006KT 3SM -FZRA BR OVC008
FM131000 18004KT 2SM -FZRA BR OVC005
FM131200 17004KT 2SM -RA BR OVC003



MET'MAP, your aeronautical weather chart ! - Copyright ORBIFLY December 2007 - Disclaimer

ORBIFLY MET'MAP TEAM :

Programming & Development : Alexandra Zaïnal
Concept & original design : Baudouin d'Aumeries
Assistance for programming : Marc-Olivier Méhu
Technical & hardware support : Manuel Goepfert

Contact : metmap@orbifly.com




SOURCES & CREDITS :

   NOAA       Earth
Advisory